createdAt,value
2018-07-30T00:02:16.497Z,14.83
2018-07-30T00:04:46.758Z,15.57
2018-07-30T00:07:17.034Z,16.87
2018-07-30T00:09:47.521Z,17.70
2018-07-30T00:12:17.880Z,19.33
2018-07-30T00:14:48.199Z,16.63
2018-07-30T00:17:18.580Z,15.03
2018-07-30T00:19:48.914Z,15.30
2018-07-30T00:22:19.260Z,15.97
2018-07-30T00:24:49.632Z,16.97
2018-07-30T00:27:19.890Z,17.10
2018-07-30T00:29:50.424Z,18.00
2018-07-30T00:32:20.965Z,16.43
2018-07-30T00:34:51.266Z,17.53
2018-07-30T00:37:21.744Z,17.67
2018-07-30T00:39:52.350Z,17.33
2018-07-30T00:42:23.086Z,16.63
2018-07-30T00:44:53.675Z,18.70
2018-07-30T00:47:24.349Z,18.17
2018-07-30T00:49:54.852Z,20.07
2018-07-30T00:52:25.510Z,19.20
2018-07-30T00:54:56.221Z,18.73
2018-07-30T00:57:26.651Z,19.57
2018-07-30T00:59:57.203Z,20.23
2018-07-30T01:02:27.695Z,20.90
2018-07-30T01:04:58.115Z,19.67
2018-07-30T01:07:28.662Z,20.50
2018-07-30T01:09:59.264Z,19.37
2018-07-30T01:12:29.707Z,20.33
2018-07-30T01:15:00.196Z,20.13
2018-07-30T01:17:30.728Z,19.13
2018-07-30T01:20:01.165Z,22.37
2018-07-30T01:22:31.764Z,19.40
2018-07-30T01:25:02.271Z,18.67
2018-07-30T01:27:32.796Z,18.37
2018-07-30T01:30:03.269Z,19.00
2018-07-30T01:32:33.709Z,20.37
2018-07-30T01:35:04.421Z,21.87
2018-07-30T01:37:34.886Z,18.97
2018-07-30T01:40:06.679Z,18.07
2018-07-30T01:42:37.086Z,18.43
2018-07-30T01:45:07.526Z,17.57
2018-07-30T01:47:37.900Z,17.00
2018-07-30T01:50:08.279Z,16.97
2018-07-30T01:52:38.713Z,15.90
2018-07-30T01:55:09.241Z,18.60
2018-07-30T01:57:39.807Z,21.03
2018-07-30T02:00:10.387Z,22.67
2018-07-30T02:02:42.651Z,22.60
2018-07-30T02:05:13.424Z,22.57
2018-07-30T02:07:43.863Z,21.30
2018-07-30T02:10:14.166Z,22.77
2018-07-30T02:12:44.720Z,22.87
2018-07-30T02:15:16.926Z,21.33
2018-07-30T02:17:47.576Z,18.90
2018-07-30T02:20:17.912Z,20.13
2018-07-30T02:22:48.498Z,17.60
2018-07-30T02:25:18.981Z,18.67
2018-07-30T02:27:49.648Z,18.27
2018-07-30T02:30:20.055Z,19.20
2018-07-30T02:32:50.461Z,17.97
2018-07-30T02:35:20.793Z,17.87
2018-07-30T02:37:51.425Z,16.23
2018-07-30T02:40:21.908Z,15.17
2018-07-30T02:42:52.253Z,13.80
2018-07-30T02:45:22.712Z,14.00
2018-07-30T02:47:53.317Z,12.90
2018-07-30T02:50:23.805Z,14.80
2018-07-30T02:52:54.231Z,13.13
2018-07-30T02:55:24.866Z,13.37
2018-07-30T02:57:55.433Z,13.87
2018-07-30T03:00:26.120Z,13.50
2018-07-30T03:02:56.524Z,13.70
2018-07-30T03:05:27.149Z,13.03
2018-07-30T03:07:57.779Z,13.77
2018-07-30T03:10:28.213Z,11.80
2018-07-30T03:12:58.653Z,12.60
2018-07-30T03:15:29.514Z,12.13
2018-07-30T03:18:00.031Z,13.73
2018-07-30T03:20:30.660Z,12.43
2018-07-30T03:23:01.201Z,15.47
2018-07-30T03:25:31.861Z,14.40
2018-07-30T03:28:02.553Z,14.97
2018-07-30T03:30:33.223Z,17.83
2018-07-30T03:33:03.485Z,17.80
2018-07-30T03:35:34.001Z,19.10
2018-07-30T03:38:04.663Z,17.00
2018-07-30T03:40:35.118Z,19.23
2018-07-30T03:43:05.629Z,19.40
2018-07-30T03:45:36.169Z,18.70
2018-07-30T03:48:06.674Z,21.63
2018-07-30T03:50:37.030Z,21.50
2018-07-30T03:53:07.546Z,17.83
2018-07-30T03:55:37.930Z,19.40
2018-07-30T03:58:08.493Z,19.63
2018-07-30T04:00:38.870Z,19.80
2018-07-30T04:03:09.350Z,20.87
2018-07-30T04:05:39.751Z,18.87
2018-07-30T04:08:10.117Z,22.37
2018-07-30T04:10:40.663Z,19.73
2018-07-30T04:13:10.971Z,19.83
2018-07-30T04:15:41.445Z,20.63
2018-07-30T04:18:11.982Z,21.17
2018-07-30T04:20:42.398Z,21.17
2018-07-30T04:23:12.877Z,21.67
2018-07-30T04:25:43.351Z,19.77
2018-07-30T04:28:13.725Z,21.73
2018-07-30T04:30:44.244Z,20.80
2018-07-30T04:33:14.823Z,20.30
2018-07-30T04:35:45.257Z,21.13
2018-07-30T04:38:18.313Z,23.77
2018-07-30T04:40:49.350Z,21.13
2018-07-30T04:43:19.770Z,19.57
2018-07-30T04:45:50.089Z,20.43
2018-07-30T04:48:20.412Z,19.63
2018-07-30T04:50:50.793Z,19.97
2018-07-30T04:53:21.387Z,19.13
2018-07-30T04:55:51.662Z,21.47
2018-07-30T04:58:21.954Z,19.47
2018-07-30T05:00:52.590Z,22.13
2018-07-30T05:03:22.962Z,20.17
2018-07-30T05:05:53.459Z,18.70
2018-07-30T05:08:24.076Z,20.97
2018-07-30T05:10:54.460Z,22.63
2018-07-30T05:13:24.938Z,18.87
2018-07-30T05:15:55.606Z,19.60
2018-07-30T05:18:25.923Z,19.27
2018-07-30T05:20:56.271Z,19.60
2018-07-30T05:23:27.663Z,19.90
2018-07-30T05:25:58.513Z,19.57
2018-07-30T05:28:28.804Z,21.83
2018-07-30T05:30:59.397Z,17.60
2018-07-30T05:33:29.877Z,17.40
2018-07-30T05:36:00.357Z,17.87
2018-07-30T05:38:30.738Z,15.83
2018-07-30T05:41:01.190Z,19.73
2018-07-30T05:43:32.524Z,20.10
2018-07-30T05:46:02.935Z,15.97
2018-07-30T05:48:33.282Z,16.17
2018-07-30T05:51:03.591Z,16.93
2018-07-30T05:53:34.037Z,18.23
2018-07-30T05:56:04.725Z,19.03
2018-07-30T05:58:35.024Z,15.47
2018-07-30T06:01:05.480Z,19.80
2018-07-30T06:03:35.876Z,18.13
2018-07-30T06:06:06.538Z,16.70
2018-07-30T06:08:37.015Z,17.20
2018-07-30T06:11:07.427Z,17.33
2018-07-30T06:13:37.867Z,14.97
2018-07-30T06:16:08.341Z,18.93
2018-07-30T06:18:38.705Z,14.07
2018-07-30T06:21:09.214Z,14.93
2018-07-30T06:23:39.884Z,16.93
2018-07-30T06:26:10.214Z,12.43
2018-07-30T06:28:40.727Z,13.70
2018-07-30T06:31:11.171Z,15.27
2018-07-30T06:33:41.606Z,16.53
2018-07-30T06:36:11.961Z,12.40
2018-07-30T06:38:42.310Z,13.93
2018-07-30T06:41:12.770Z,22.20
2018-07-30T06:43:43.177Z,14.47
2018-07-30T06:46:13.492Z,16.30
2018-07-30T06:48:44.008Z,14.17
2018-07-30T06:51:14.503Z,20.43
2018-07-30T06:53:44.894Z,19.40
2018-07-30T06:56:15.479Z,17.40
2018-07-30T06:58:46.052Z,11.33
2018-07-30T07:01:16.503Z,14.87
2018-07-30T07:03:47.099Z,13.20
2018-07-30T07:06:17.620Z,17.83
2018-07-30T07:08:47.920Z,19.97
2018-07-30T07:11:18.333Z,14.57
2018-07-30T07:13:48.788Z,9.57
2018-07-30T07:16:19.164Z,14.03
2018-07-30T07:18:49.633Z,18.57
2018-07-30T07:21:20.152Z,11.57
2018-07-30T07:23:50.467Z,14.37
2018-07-30T07:26:20.842Z,11.70
2018-07-30T07:28:51.556Z,18.37
2018-07-30T07:31:22.142Z,16.20
2018-07-30T07:33:52.541Z,14.73
2018-07-30T07:36:23.009Z,11.83
2018-07-30T07:38:54.520Z,10.90
2018-07-30T07:41:25.219Z,9.47
2018-07-30T07:43:55.537Z,10.03
2018-07-30T07:46:25.925Z,11.60
2018-07-30T07:48:56.641Z,14.47
2018-07-30T07:51:29.072Z,16.13
2018-07-30T07:53:59.472Z,13.83
2018-07-30T07:56:30.043Z,11.63
2018-07-30T07:59:00.779Z,11.87
2018-07-30T08:01:32.374Z,11.27
2018-07-30T08:04:02.906Z,15.83
2018-07-30T08:06:33.343Z,13.90
2018-07-30T08:09:03.857Z,12.03
2018-07-30T08:11:34.308Z,13.97
2018-07-30T08:14:04.739Z,12.97
2018-07-30T08:16:35.172Z,11.73
2018-07-30T08:19:05.962Z,13.07
2018-07-30T08:21:41.307Z,14.47
2018-07-30T08:24:12.086Z,12.37
2018-07-30T08:26:42.477Z,13.23
2018-07-30T08:29:12.940Z,12.20
2018-07-30T08:31:43.686Z,17.83
2018-07-30T08:34:14.329Z,12.07
2018-07-30T08:36:44.806Z,12.17
2018-07-30T08:39:15.478Z,12.40
2018-07-30T08:41:48.284Z,13.43
2018-07-30T08:44:20.010Z,13.00
2018-07-30T08:46:50.540Z,16.73
2018-07-30T08:49:20.819Z,11.40
2018-07-30T08:51:51.370Z,12.13
2018-07-30T08:54:21.778Z,13.57
2018-07-30T08:56:52.205Z,11.83
2018-07-30T08:59:22.566Z,17.77
2018-07-30T09:01:52.962Z,17.93
2018-07-30T09:04:25.353Z,17.93
2018-07-30T09:06:56.788Z,11.20
2018-07-30T09:09:27.226Z,12.10
2018-07-30T09:11:57.770Z,14.23
2018-07-30T09:14:28.376Z,16.90
2018-07-30T09:16:59.039Z,16.27
2018-07-30T09:19:30.311Z,12.20
2018-07-30T09:22:02.085Z,18.97
2018-07-30T09:24:32.433Z,16.50
2018-07-30T09:27:02.833Z,15.77
2018-07-30T09:29:34.229Z,17.07
2018-07-30T09:32:04.933Z,18.80
2018-07-30T09:34:35.568Z,15.30
2018-07-30T09:37:06.223Z,17.07
2018-07-30T09:39:36.765Z,12.97
2018-07-30T09:42:07.249Z,13.60
2018-07-30T09:44:38.866Z,13.30
2018-07-30T09:47:09.294Z,13.60
2018-07-30T09:49:39.667Z,14.30
2018-07-30T09:52:10.249Z,13.90
2018-07-30T09:54:40.763Z,15.50
2018-07-30T09:57:11.135Z,13.07
2018-07-30T09:59:41.696Z,17.17
2018-07-30T10:02:12.275Z,13.40
2018-07-30T10:04:45.901Z,13.53
2018-07-30T10:07:16.499Z,13.37
2018-07-30T10:09:46.812Z,17.67
2018-07-30T10:12:17.145Z,14.70
2018-07-30T10:14:47.498Z,17.13
2018-07-30T10:17:17.889Z,11.97
2018-07-30T10:19:48.228Z,15.27
2018-07-30T10:22:18.842Z,12.23
2018-07-30T10:24:49.539Z,17.00
2018-07-30T10:27:20.032Z,12.03
2018-07-30T10:29:50.464Z,14.80
2018-07-30T10:32:20.793Z,14.40
2018-07-30T10:34:51.057Z,12.93
2018-07-30T10:37:21.682Z,12.13
2018-07-30T10:39:52.228Z,11.60
2018-07-30T10:42:22.644Z,12.47
2018-07-30T10:44:53.260Z,11.60
2018-07-30T10:47:23.712Z,10.40
2018-07-30T10:49:54.260Z,11.07
2018-07-30T10:52:24.641Z,10.33
2018-07-30T10:54:55.416Z,10.73
2018-07-30T10:57:25.859Z,11.73
2018-07-30T10:59:56.250Z,11.50
2018-07-30T11:02:26.844Z,19.80
2018-07-30T11:04:57.218Z,14.93
2018-07-30T11:07:27.562Z,12.03
2018-07-30T11:09:58.186Z,14.43
2018-07-30T11:12:28.812Z,21.63
2018-07-30T11:14:59.257Z,15.83
2018-07-30T11:17:29.677Z,32.90
2018-07-30T11:20:00.216Z,11.93
2018-07-30T11:22:30.609Z,13.10
2018-07-30T11:25:00.977Z,13.80
2018-07-30T11:27:31.637Z,15.27
2018-07-30T11:30:02.598Z,25.80
2018-07-30T11:32:32.958Z,10.47
2018-07-30T11:35:03.265Z,18.83
2018-07-30T11:37:33.782Z,10.37
2018-07-30T11:40:04.267Z,11.50
2018-07-30T11:42:35.608Z,11.83
2018-07-30T11:45:06.374Z,13.50
2018-07-30T11:47:36.716Z,12.83
2018-07-30T11:50:07.635Z,15.47
2018-07-30T11:52:38.054Z,13.03
2018-07-30T11:55:08.454Z,17.43
2018-07-30T11:57:38.768Z,12.47
2018-07-30T12:00:09.342Z,12.77
2018-07-30T12:02:39.629Z,12.33
2018-07-30T12:05:10.214Z,12.97
2018-07-30T12:07:40.614Z,14.43
2018-07-30T12:10:11.174Z,11.03
2018-07-30T12:12:41.603Z,10.83
2018-07-30T12:15:11.621Z,12.93
2018-07-30T12:17:42.697Z,12.90
2018-07-30T12:20:13.260Z,12.43
2018-07-30T12:22:43.776Z,13.87
2018-07-30T12:25:14.252Z,14.27
2018-07-30T12:27:45.860Z,22.20
2018-07-30T12:30:16.532Z,25.27
2018-07-30T12:32:46.867Z,13.60
2018-07-30T12:35:17.449Z,13.93
2018-07-30T12:37:47.850Z,12.17
2018-07-30T12:40:18.305Z,16.57
2018-07-30T12:42:48.661Z,14.47
2018-07-30T12:45:24.268Z,15.60
2018-07-30T12:47:54.588Z,17.00
2018-07-30T12:50:25.372Z,14.07
2018-07-30T12:52:56.746Z,14.20
2018-07-30T12:55:27.122Z,14.10
2018-07-30T12:57:57.533Z,19.57
2018-07-30T13:00:28.718Z,15.53
2018-07-30T13:02:59.525Z,14.43
2018-07-30T13:05:29.973Z,13.77
2018-07-30T13:08:00.340Z,15.43
2018-07-30T13:10:31.030Z,15.07
2018-07-30T13:13:01.359Z,15.37
2018-07-30T13:15:31.861Z,14.13
2018-07-30T13:18:02.524Z,18.60
2018-07-30T13:20:33.092Z,14.37
2018-07-30T13:23:03.557Z,17.00
2018-07-30T13:25:34.032Z,13.67
2018-07-30T13:28:04.739Z,18.43
2018-07-30T13:30:35.189Z,18.80
2018-07-30T13:33:05.848Z,26.97
2018-07-30T13:35:36.176Z,18.17
2018-07-30T13:38:07.266Z,19.80
2018-07-30T13:40:37.923Z,19.33
2018-07-30T13:43:08.392Z,19.93
2018-07-30T13:45:38.881Z,13.07
2018-07-30T13:48:09.349Z,17.17
2018-07-30T13:50:39.731Z,19.53
2018-07-30T13:53:10.394Z,21.07
2018-07-30T13:55:40.909Z,18.40
2018-07-30T13:58:11.575Z,16.53
2018-07-30T14:00:42.215Z,12.60
2018-07-30T14:03:12.707Z,15.67
2018-07-30T14:05:43.493Z,11.80
2018-07-30T14:08:14.832Z,15.97
2018-07-30T14:10:45.414Z,11.07
2018-07-30T14:13:16.006Z,10.60
2018-07-30T14:15:46.705Z,10.73
2018-07-30T14:18:17.208Z,11.60
2018-07-30T14:20:47.640Z,12.17
2018-07-30T14:23:19.075Z,12.47
2018-07-30T14:25:49.629Z,11.70
2018-07-30T14:28:20.241Z,13.37
2018-07-30T14:30:50.708Z,15.20
2018-07-30T14:33:21.087Z,9.93
2018-07-30T14:35:51.721Z,14.27
2018-07-30T14:38:22.221Z,10.93
2018-07-30T14:40:52.693Z,11.73
2018-07-30T14:43:23.290Z,16.43
2018-07-30T14:45:53.881Z,9.93
2018-07-30T14:48:25.406Z,10.43
2018-07-30T14:50:56.327Z,14.20
2018-07-30T14:53:26.597Z,11.27
2018-07-30T14:55:57.187Z,9.87
2018-07-30T14:58:27.906Z,10.00
2018-07-30T15:00:58.506Z,13.13
2018-07-30T15:03:29.770Z,11.93
2018-07-30T15:06:00.480Z,9.83
2018-07-30T15:08:30.922Z,12.83
2018-07-30T15:11:01.282Z,8.93
2018-07-30T15:13:32.518Z,8.33
2018-07-30T15:16:03.888Z,10.30
2018-07-30T15:18:34.287Z,16.27
2018-07-30T15:21:04.932Z,12.40
2018-07-30T15:23:35.416Z,16.00
2018-07-30T15:26:06.889Z,18.80
2018-07-30T15:28:37.416Z,10.27
2018-07-30T15:31:08.007Z,16.57
2018-07-30T15:33:38.562Z,16.70
2018-07-30T15:36:08.959Z,22.17
2018-07-30T15:38:39.272Z,15.73
2018-07-30T15:41:09.719Z,18.50
2018-07-30T15:43:40.394Z,14.60
2018-07-30T15:46:10.860Z,12.33
2018-07-30T15:48:41.265Z,15.47
2018-07-30T15:51:11.876Z,10.40
2018-07-30T15:53:42.346Z,12.73
2018-07-30T15:56:12.907Z,13.37
2018-07-30T15:58:44.167Z,10.93
2018-07-30T16:01:14.763Z,10.77
2018-07-30T16:03:45.138Z,10.30
2018-07-30T16:06:15.682Z,11.60
2018-07-30T16:08:46.169Z,10.10
2018-07-30T16:11:16.732Z,12.60
2018-07-30T16:13:47.728Z,12.77
2018-07-30T16:16:18.389Z,10.77
2018-07-30T16:18:49.000Z,9.80
2018-07-30T16:21:19.478Z,12.87
2018-07-30T16:23:49.824Z,10.67
2018-07-30T16:26:20.422Z,11.43
2018-07-30T16:28:51.024Z,9.10
2018-07-30T16:31:21.288Z,9.83
2018-07-30T16:33:51.941Z,9.17
2018-07-30T16:36:22.380Z,10.20
2018-07-30T16:38:53.166Z,9.90
2018-07-30T16:41:23.709Z,10.23
2018-07-30T16:43:54.318Z,10.03
2018-07-30T16:46:24.697Z,10.17
2018-07-30T16:48:55.204Z,10.77
2018-07-30T16:51:25.558Z,10.73
2018-07-30T16:53:57.032Z,10.70
2018-07-30T16:56:27.639Z,11.60
2018-07-30T16:58:58.190Z,9.90
2018-07-30T17:01:28.676Z,9.73
2018-07-30T17:03:59.146Z,14.43
2018-07-30T17:06:30.480Z,12.47
2018-07-30T17:09:01.013Z,9.37
2018-07-30T17:11:31.641Z,11.23
2018-07-30T17:14:02.276Z,12.87
2018-07-30T17:16:32.756Z,9.87
2018-07-30T17:19:03.445Z,10.37
2018-07-30T17:21:34.125Z,10.87
2018-07-30T17:24:04.749Z,11.50
2018-07-30T17:26:35.302Z,13.20
2018-07-30T17:29:06.078Z,9.70
2018-07-30T17:31:36.518Z,11.47
2018-07-30T17:34:07.157Z,14.73
2018-07-30T17:36:37.476Z,14.00
2018-07-30T17:39:09.730Z,9.40
2018-07-30T17:41:40.206Z,28.90
2018-07-30T17:44:10.815Z,17.30
2018-07-30T17:46:41.266Z,16.67
2018-07-30T17:49:12.578Z,21.33
2018-07-30T17:51:43.263Z,13.93
2018-07-30T17:54:13.782Z,22.47
2018-07-30T17:56:44.186Z,14.87
2018-07-30T17:59:14.893Z,14.67
2018-07-30T18:01:45.316Z,13.57
2018-07-30T18:04:15.750Z,14.83
2018-07-30T18:06:46.366Z,12.50
2018-07-30T18:09:16.844Z,16.43
2018-07-30T18:11:47.266Z,11.20
2018-07-30T18:14:17.838Z,17.37
2018-07-30T18:16:48.499Z,19.23
2018-07-30T18:19:18.860Z,12.87
2018-07-30T18:21:49.276Z,12.27
2018-07-30T18:24:21.389Z,12.90
2018-07-30T18:26:54.181Z,13.83
2018-07-30T18:29:27.180Z,14.40
2018-07-30T18:32:00.091Z,16.47
2018-07-30T18:34:33.443Z,16.13
2018-07-30T18:37:06.603Z,12.50
2018-07-30T18:39:39.602Z,13.83
2018-07-30T18:42:12.335Z,13.07
2018-07-30T18:44:45.014Z,12.67
2018-07-30T18:47:17.945Z,11.80
2018-07-30T18:49:51.947Z,12.43
2018-07-30T18:52:24.330Z,16.60
2018-07-30T18:54:57.089Z,13.27
2018-07-30T18:57:29.965Z,17.93
2018-07-30T19:00:02.755Z,14.10
2018-07-30T19:02:35.445Z,13.33
2018-07-30T19:05:08.824Z,12.13
2018-07-30T19:07:42.444Z,13.53
2018-07-30T19:10:15.667Z,13.33
2018-07-30T19:12:48.953Z,11.37
2018-07-30T19:15:21.582Z,13.23
2018-07-30T19:17:54.182Z,13.17
2018-07-30T19:20:26.706Z,15.67
2018-07-30T19:22:59.364Z,12.67
2018-07-30T19:25:32.681Z,16.63
2018-07-30T19:28:05.354Z,13.50
2018-07-30T19:30:38.088Z,14.63
2018-07-30T19:33:11.015Z,14.67
2018-07-30T19:35:43.643Z,14.83
2018-07-30T19:38:17.463Z,14.43
2018-07-30T19:40:50.138Z,16.80
2018-07-30T19:43:23.111Z,13.83
2018-07-30T19:45:55.904Z,14.70
2018-07-30T19:48:28.496Z,13.77
2018-07-30T19:51:02.222Z,15.23
2018-07-30T19:53:38.864Z,14.27
2018-07-30T19:56:11.522Z,16.77
2018-07-30T19:58:44.227Z,17.47
2018-07-30T20:01:17.790Z,16.87
2018-07-30T20:03:50.412Z,14.13
2018-07-30T20:06:23.063Z,14.07
2018-07-30T20:08:55.616Z,15.10
2018-07-30T20:11:28.745Z,14.27
2018-07-30T20:14:02.760Z,14.63
2018-07-30T20:16:37.640Z,14.13
2018-07-30T20:19:10.171Z,15.20
2018-07-30T20:21:43.001Z,15.73
2018-07-30T20:24:15.946Z,13.97
2018-07-30T20:26:48.255Z,15.07
2018-07-30T20:29:20.873Z,16.67
2018-07-30T20:31:54.686Z,14.50
2018-07-30T20:34:27.558Z,14.63
2018-07-30T20:37:00.335Z,15.10
2018-07-30T20:39:33.300Z,15.70
2018-07-30T20:42:06.737Z,15.27
2018-07-30T20:44:39.818Z,17.10
2018-07-30T20:47:14.470Z,16.53
2018-07-30T20:49:47.588Z,17.03
2018-07-30T20:52:21.176Z,17.37
2018-07-30T20:54:54.254Z,16.73
2018-07-30T20:57:26.996Z,18.10
2018-07-30T21:00:00.575Z,16.90
2018-07-30T21:02:31.336Z,17.73
2018-07-30T21:05:02.985Z,16.53
2018-07-30T21:07:33.539Z,17.90
2018-07-30T21:10:04.424Z,16.63
2018-07-30T21:12:34.823Z,18.60
2018-07-30T21:15:05.729Z,16.47
2018-07-30T21:17:36.274Z,17.17
2018-07-30T21:20:06.902Z,16.47
2018-07-30T21:22:37.436Z,15.93
2018-07-30T21:25:07.901Z,15.57
2018-07-30T21:27:38.305Z,16.27
2018-07-30T21:30:09.550Z,15.03
2018-07-30T21:32:40.088Z,15.43
2018-07-30T21:35:11.325Z,14.77
2018-07-30T21:37:41.696Z,14.27
2018-07-30T21:40:12.287Z,15.20
2018-07-30T21:42:42.997Z,14.70
2018-07-30T21:45:14.566Z,14.00
2018-07-30T21:47:44.974Z,15.03
2018-07-30T21:50:15.576Z,15.03
2018-07-30T21:52:46.137Z,14.60
2018-07-30T21:55:16.527Z,16.63
2018-07-30T21:57:47.149Z,15.13
2018-07-30T22:00:26.505Z,14.57
2018-07-30T22:02:57.777Z,15.00
2018-07-30T22:05:28.370Z,13.97
2018-07-30T22:07:58.883Z,14.97
2018-07-30T22:10:29.480Z,14.10
2018-07-30T22:13:00.119Z,14.40
2018-07-30T22:15:30.698Z,14.40
2018-07-30T22:18:01.107Z,14.73
2018-07-30T22:20:31.574Z,15.30
2018-07-30T22:23:02.655Z,14.73
2018-07-30T22:25:33.328Z,15.37
2018-07-30T22:28:03.927Z,14.47
2018-07-30T22:30:34.399Z,14.73
2018-07-30T22:33:05.277Z,13.60
2018-07-30T22:35:35.632Z,13.47
2018-07-30T22:38:06.335Z,15.97
2018-07-30T22:40:36.937Z,14.47
2018-07-30T22:43:08.530Z,14.67
2018-07-30T22:45:39.312Z,14.90
2018-07-30T22:48:09.734Z,15.77
2018-07-30T22:50:40.117Z,14.53
2018-07-30T22:53:10.708Z,14.03
2018-07-30T22:55:41.279Z,17.03
2018-07-30T22:58:11.571Z,16.17
2018-07-30T23:00:42.166Z,15.77
2018-07-30T23:03:12.551Z,15.50
2018-07-30T23:05:42.941Z,15.00
2018-07-30T23:08:13.690Z,15.90
2018-07-30T23:10:44.034Z,15.27
2018-07-30T23:13:14.510Z,17.07
2018-07-30T23:15:45.095Z,16.23
2018-07-30T23:18:15.718Z,16.40
2018-07-30T23:20:46.159Z,17.73
2018-07-30T23:23:16.609Z,19.23
2018-07-30T23:25:46.960Z,20.50
2018-07-30T23:28:17.652Z,20.53
2018-07-30T23:30:48.957Z,20.03
2018-07-30T23:33:19.501Z,19.20
2018-07-30T23:35:50.197Z,19.23
2018-07-30T23:38:20.786Z,19.87
2018-07-30T23:40:51.297Z,19.40
2018-07-30T23:43:21.629Z,22.27
2018-07-30T23:45:52.144Z,22.13
2018-07-30T23:48:22.594Z,19.80
2018-07-30T23:50:53.043Z,22.73
2018-07-30T23:53:23.497Z,20.93
2018-07-30T23:55:53.978Z,21.27
2018-07-30T23:58:24.318Z,20.13
